createdAt,value
2017-09-19T00:01:10.246Z,8.02
2017-09-19T00:03:37.721Z,8.40
2017-09-19T00:06:05.185Z,7.37
2017-09-19T00:08:32.661Z,8.10
2017-09-19T00:11:00.168Z,7.70
2017-09-19T00:13:27.680Z,8.73
2017-09-19T00:15:55.243Z,7.87
2017-09-19T00:18:22.704Z,7.22
2017-09-19T00:20:50.170Z,7.32
2017-09-19T00:23:17.656Z,8.00
2017-09-19T00:25:45.128Z,8.40
2017-09-19T00:28:13.355Z,7.55
2017-09-19T00:30:40.838Z,8.13
2017-09-19T00:33:08.401Z,7.50
2017-09-19T00:35:35.873Z,7.60
2017-09-19T00:38:04.119Z,7.80
2017-09-19T00:40:31.606Z,7.87
2017-09-19T00:42:59.834Z,8.98
2017-09-19T00:45:27.316Z,7.93
2017-09-19T00:47:54.794Z,8.10
2017-09-19T00:50:23.030Z,7.55
2017-09-19T00:52:50.503Z,7.28
2017-09-19T00:55:17.989Z,8.68
2017-09-19T00:57:46.222Z,7.28
2017-09-19T01:00:13.705Z,7.18
2017-09-19T01:02:41.174Z,8.45
2017-09-19T01:05:09.423Z,7.22
2017-09-19T01:07:36.989Z,7.87
2017-09-19T01:10:04.461Z,8.95
2017-09-19T01:12:32.720Z,7.25
2017-09-19T01:15:00.282Z,7.50
2017-09-19T01:17:27.793Z,8.38
2017-09-19T01:19:55.263Z,8.38
2017-09-19T01:22:22.729Z,7.75
2017-09-19T01:24:50.209Z,7.95
2017-09-19T01:27:17.678Z,7.75
2017-09-19T01:29:45.945Z,7.47
2017-09-19T01:32:13.409Z,8.45
2017-09-19T01:34:41.677Z,7.93
2017-09-19T01:37:09.241Z,9.18
2017-09-19T01:39:40.242Z,7.60
2017-09-19T01:42:07.718Z,8.70
2017-09-19T01:44:35.196Z,7.65
2017-09-19T01:47:03.424Z,7.43
2017-09-19T01:49:30.923Z,7.50
2017-09-19T01:51:58.636Z,7.65
2017-09-19T01:54:26.081Z,7.22
2017-09-19T01:56:53.561Z,7.60
2017-09-19T01:59:21.021Z,8.65
2017-09-19T02:01:48.488Z,7.65
2017-09-19T02:04:15.950Z,8.35
2017-09-19T02:06:43.424Z,7.43
2017-09-19T02:09:10.886Z,6.97
2017-09-19T02:11:38.491Z,7.68
2017-09-19T02:14:06.005Z,8.23
2017-09-19T02:16:33.462Z,7.82
2017-09-19T02:19:01.064Z,8.05
2017-09-19T02:21:28.515Z,7.12
2017-09-19T02:23:55.985Z,7.50
2017-09-19T02:26:23.447Z,8.02
2017-09-19T02:28:50.917Z,7.72
2017-09-19T02:31:18.377Z,8.23
2017-09-19T02:33:45.849Z,8.23
2017-09-19T02:36:13.313Z,8.18
2017-09-19T02:38:41.562Z,7.68
2017-09-19T02:41:09.035Z,7.60
2017-09-19T02:43:36.593Z,7.57
2017-09-19T02:46:04.208Z,6.90
2017-09-19T02:48:31.676Z,8.02
2017-09-19T02:50:59.141Z,7.68
2017-09-19T02:53:26.603Z,7.10
2017-09-19T02:55:54.108Z,8.57
2017-09-19T02:58:22.345Z,7.00
2017-09-19T03:00:49.829Z,7.00
2017-09-19T03:03:18.144Z,7.65
2017-09-19T03:05:45.645Z,7.10
2017-09-19T03:08:13.201Z,6.80
2017-09-19T03:10:40.681Z,6.90
2017-09-19T03:13:08.912Z,7.35
2017-09-19T03:15:36.394Z,7.75
2017-09-19T03:18:03.848Z,6.20
2017-09-19T03:20:31.318Z,7.40
2017-09-19T03:22:59.553Z,6.75
2017-09-19T03:25:27.018Z,7.03
2017-09-19T03:27:54.472Z,6.45
2017-09-19T03:30:21.952Z,7.37
2017-09-19T03:32:49.414Z,7.10
2017-09-19T03:35:16.886Z,7.10
2017-09-19T03:37:45.143Z,6.93
2017-09-19T03:40:12.609Z,7.22
2017-09-19T03:42:40.157Z,8.10
2017-09-19T03:45:07.620Z,6.82
2017-09-19T03:47:35.081Z,7.25
2017-09-19T03:50:02.630Z,6.28
2017-09-19T03:52:30.089Z,6.43
2017-09-19T03:54:57.726Z,6.87
2017-09-19T03:57:25.185Z,6.55
2017-09-19T03:59:52.657Z,6.80
2017-09-19T04:02:20.121Z,6.93
2017-09-19T04:04:47.683Z,7.78
2017-09-19T04:07:15.138Z,6.10
2017-09-19T04:09:42.687Z,7.30
2017-09-19T04:12:10.149Z,7.68
2017-09-19T04:14:37.758Z,6.65
2017-09-19T04:17:05.220Z,7.00
2017-09-19T04:19:32.723Z,7.53
2017-09-19T04:22:00.274Z,6.45
2017-09-19T04:24:27.746Z,6.65
2017-09-19T04:26:56.109Z,7.28
2017-09-19T04:29:23.726Z,7.70
2017-09-19T04:31:51.185Z,7.53
2017-09-19T04:34:18.634Z,7.15
2017-09-19T04:36:46.097Z,7.60
2017-09-19T04:39:13.549Z,8.43
2017-09-19T04:41:41.017Z,7.80
2017-09-19T04:44:08.487Z,8.18
2017-09-19T04:46:35.958Z,9.10
2017-09-19T04:49:03.526Z,7.62
2017-09-19T04:51:31.757Z,7.55
2017-09-19T04:53:59.373Z,8.15
2017-09-19T04:56:27.633Z,9.25
2017-09-19T04:58:55.190Z,9.07
2017-09-19T05:01:24.954Z,8.85
2017-09-19T05:03:52.421Z,8.20
2017-09-19T05:06:20.056Z,8.40
2017-09-19T05:08:48.292Z,9.50
2017-09-19T05:11:15.761Z,10.27
2017-09-19T05:13:43.325Z,10.98
2017-09-19T05:16:10.952Z,10.35
2017-09-19T05:18:38.417Z,9.93
2017-09-19T05:21:05.887Z,10.77
2017-09-19T05:23:33.399Z,10.85
2017-09-19T05:26:00.902Z,11.20
2017-09-19T05:28:28.368Z,11.18
2017-09-19T05:30:55.844Z,10.73
2017-09-19T05:33:24.088Z,12.15
2017-09-19T05:35:51.556Z,11.10
2017-09-19T05:38:19.100Z,10.73
2017-09-19T05:40:46.563Z,10.32
2017-09-19T05:43:14.113Z,10.18
2017-09-19T05:45:41.579Z,12.85
2017-09-19T05:48:09.140Z,12.15
2017-09-19T05:50:36.605Z,13.07
2017-09-19T05:53:10.966Z,12.52
2017-09-19T05:55:38.523Z,13.30
2017-09-19T05:58:05.978Z,13.52
2017-09-19T06:00:33.461Z,12.52
2017-09-19T06:03:00.938Z,12.85
2017-09-19T06:05:28.415Z,12.10
2017-09-19T06:07:56.778Z,13.52
2017-09-19T06:10:24.256Z,14.35
2017-09-19T06:12:52.492Z,13.25
2017-09-19T06:15:20.064Z,13.55
2017-09-19T06:17:47.625Z,14.15
2017-09-19T06:20:15.110Z,14.27
2017-09-19T06:22:42.590Z,14.02
2017-09-19T06:25:10.097Z,15.55
2017-09-19T06:27:37.648Z,12.90
2017-09-19T06:30:05.141Z,13.68
2017-09-19T06:32:33.369Z,12.98
2017-09-19T06:35:00.899Z,13.93
2017-09-19T06:37:28.369Z,13.50
2017-09-19T06:39:55.856Z,14.38
2017-09-19T06:42:23.328Z,13.88
2017-09-19T06:44:50.827Z,13.10
2017-09-19T06:47:18.301Z,14.70
2017-09-19T06:49:45.772Z,13.15
2017-09-19T06:52:13.266Z,13.77
2017-09-19T06:54:41.518Z,12.75
2017-09-19T06:57:09.030Z,11.70
2017-09-19T06:59:36.496Z,12.90
2017-09-19T07:02:03.972Z,13.32
2017-09-19T07:04:31.438Z,12.07
2017-09-19T07:06:59.001Z,10.68
2017-09-19T07:09:26.621Z,12.93
2017-09-19T07:11:54.094Z,10.57
2017-09-19T07:14:21.575Z,11.45
2017-09-19T07:16:49.044Z,11.15
2017-09-19T07:19:17.312Z,11.38
2017-09-19T07:21:44.789Z,11.30
2017-09-19T07:24:13.040Z,12.98
2017-09-19T07:26:40.519Z,11.80
2017-09-19T07:29:08.777Z,10.82
2017-09-19T07:31:36.277Z,10.48
2017-09-19T07:34:03.745Z,10.32
2017-09-19T07:36:31.226Z,11.23
2017-09-19T07:38:58.818Z,10.77
2017-09-19T07:41:27.080Z,12.05
2017-09-19T07:43:54.553Z,10.13
2017-09-19T07:46:22.794Z,10.07
2017-09-19T07:48:50.278Z,9.40
2017-09-19T07:51:18.553Z,10.30
2017-09-19T07:53:46.026Z,9.77
2017-09-19T07:56:14.335Z,10.60
2017-09-19T07:58:41.804Z,9.60
2017-09-19T08:01:09.346Z,9.40
2017-09-19T08:03:36.818Z,9.27
2017-09-19T08:06:04.324Z,9.77
2017-09-19T08:08:32.565Z,10.77
2017-09-19T08:11:00.196Z,9.60
2017-09-19T08:13:27.665Z,8.30
2017-09-19T08:15:55.211Z,8.73
2017-09-19T08:18:22.683Z,8.47
2017-09-19T08:20:50.174Z,9.23
2017-09-19T08:23:17.731Z,8.17
2017-09-19T08:25:45.201Z,8.17
2017-09-19T08:28:13.476Z,7.50
2017-09-19T08:30:41.728Z,8.27
2017-09-19T08:33:09.198Z,8.80
2017-09-19T08:35:36.797Z,7.83
2017-09-19T08:38:04.288Z,7.93
2017-09-19T08:40:31.767Z,7.30
2017-09-19T08:42:59.227Z,7.37
2017-09-19T08:45:26.692Z,6.23
2017-09-19T08:47:54.959Z,7.20
2017-09-19T08:50:22.421Z,7.00
2017-09-19T08:52:49.922Z,5.10
2017-09-19T08:55:17.484Z,5.43
2017-09-19T08:57:44.976Z,6.80
2017-09-19T09:00:13.273Z,5.03
2017-09-19T09:02:41.542Z,6.33
2017-09-19T09:05:09.809Z,5.10
2017-09-19T09:07:37.373Z,6.07
2017-09-19T09:10:04.837Z,5.03
2017-09-19T09:12:33.110Z,5.70
2017-09-19T09:15:00.582Z,6.10
2017-09-19T09:17:28.828Z,6.87
2017-09-19T09:19:56.409Z,6.03
2017-09-19T09:22:23.878Z,5.53
2017-09-19T09:24:51.341Z,5.20
2017-09-19T09:27:18.807Z,5.30
2017-09-19T09:29:46.322Z,5.10
2017-09-19T09:32:13.794Z,5.20
2017-09-19T09:34:42.013Z,5.73
2017-09-19T09:37:09.480Z,5.63
2017-09-19T09:39:36.940Z,5.60
2017-09-19T09:42:04.399Z,5.93
2017-09-19T09:44:31.852Z,5.40
2017-09-19T09:46:59.322Z,6.30
2017-09-19T09:49:26.804Z,5.10
2017-09-19T09:51:54.270Z,5.47
2017-09-19T09:54:22.503Z,5.70
2017-09-19T09:56:49.974Z,5.77
2017-09-19T09:59:17.512Z,6.70
2017-09-19T10:01:45.104Z,5.60
2017-09-19T10:04:12.555Z,5.20
2017-09-19T10:06:40.131Z,5.87
2017-09-19T10:09:08.373Z,6.27
2017-09-19T10:11:35.842Z,5.33
2017-09-19T10:14:03.395Z,4.90
2017-09-19T10:16:30.917Z,5.10
2017-09-19T10:18:58.402Z,5.20
2017-09-19T10:21:25.858Z,5.87
2017-09-19T10:23:53.325Z,4.93
2017-09-19T10:26:20.780Z,4.67
2017-09-19T10:28:48.250Z,4.40
2017-09-19T10:31:16.607Z,4.77
2017-09-19T10:33:44.102Z,5.50
2017-09-19T10:36:12.354Z,5.97
2017-09-19T10:38:39.913Z,4.90
2017-09-19T10:41:07.382Z,4.40
2017-09-19T10:43:34.841Z,3.90
2017-09-19T10:46:02.317Z,4.03
2017-09-19T10:48:29.786Z,2.87
2017-09-19T10:50:57.291Z,3.17
2017-09-19T10:53:24.816Z,3.83
2017-09-19T10:55:52.273Z,4.10
2017-09-19T10:58:19.747Z,3.70
2017-09-19T11:00:47.271Z,3.63
2017-09-19T11:03:15.506Z,2.80
2017-09-19T11:05:42.970Z,2.80
2017-09-19T11:08:10.443Z,2.80
2017-09-19T11:10:38.675Z,3.10
2017-09-19T11:13:06.146Z,3.17
2017-09-19T11:15:35.142Z,2.70
2017-09-19T11:18:02.783Z,2.87
2017-09-19T11:20:30.229Z,2.50
2017-09-19T11:22:57.689Z,3.00
2017-09-19T11:25:25.168Z,3.13
2017-09-19T11:27:52.623Z,3.07
2017-09-19T11:30:20.882Z,3.20
2017-09-19T11:32:48.429Z,2.90
2017-09-19T11:35:15.899Z,2.90
2017-09-19T11:37:43.348Z,3.03
2017-09-19T11:40:10.838Z,2.97
2017-09-19T11:42:39.083Z,3.10
2017-09-19T11:45:06.565Z,2.83
2017-09-19T11:47:34.025Z,2.67
2017-09-19T11:50:02.253Z,3.00
2017-09-19T11:52:29.725Z,3.70
2017-09-19T11:54:57.185Z,4.00
2017-09-19T11:57:24.662Z,2.93
2017-09-19T11:59:52.230Z,2.77
2017-09-19T12:02:19.689Z,3.00
2017-09-19T12:04:47.143Z,3.40
2017-09-19T12:07:14.693Z,3.00
2017-09-19T12:09:42.161Z,3.20
2017-09-19T12:12:09.614Z,2.67
2017-09-19T12:14:37.877Z,2.70
2017-09-19T12:17:06.120Z,2.20
2017-09-19T12:19:33.611Z,2.43
2017-09-19T12:22:01.069Z,2.40
2017-09-19T12:24:29.323Z,3.40
2017-09-19T12:26:56.795Z,2.80
2017-09-19T12:29:24.306Z,2.33
2017-09-19T12:31:51.815Z,1.63
2017-09-19T12:34:19.383Z,1.70
2017-09-19T12:36:47.623Z,1.60
2017-09-19T12:39:15.090Z,1.63
2017-09-19T12:41:42.657Z,1.97
2017-09-19T12:44:10.225Z,1.97
2017-09-19T12:46:37.773Z,1.33
2017-09-19T12:49:05.242Z,1.27
2017-09-19T12:51:32.735Z,1.60
2017-09-19T12:54:00.255Z,1.73
2017-09-19T12:56:28.587Z,2.03
2017-09-19T12:58:56.060Z,1.67
2017-09-19T13:01:23.704Z,1.83
2017-09-19T13:03:51.163Z,1.93
2017-09-19T13:06:18.620Z,1.50
2017-09-19T13:08:46.126Z,1.17
2017-09-19T13:11:14.396Z,1.67
2017-09-19T13:13:42.630Z,1.27
2017-09-19T13:16:10.184Z,1.30
2017-09-19T13:18:37.650Z,1.50
2017-09-19T13:21:05.108Z,1.17
2017-09-19T13:23:32.587Z,1.70
2017-09-19T13:26:00.061Z,1.60
2017-09-19T13:28:28.387Z,1.47
2017-09-19T13:31:07.841Z,1.47
2017-09-19T13:33:47.124Z,2.60
2017-09-19T13:36:15.385Z,1.43
2017-09-19T13:38:42.850Z,1.30
2017-09-19T13:41:10.495Z,1.50
2017-09-19T13:43:37.955Z,1.60
2017-09-19T13:46:05.404Z,1.40
2017-09-19T13:48:32.906Z,1.43
2017-09-19T13:51:00.373Z,1.50
2017-09-19T13:53:27.841Z,1.40
2017-09-19T13:55:55.302Z,1.77
2017-09-19T13:58:22.794Z,1.60
2017-09-19T14:00:51.072Z,1.47
2017-09-19T14:03:18.622Z,1.37
2017-09-19T14:05:46.088Z,1.60
2017-09-19T14:08:13.553Z,1.70
2017-09-19T14:10:41.113Z,1.63
2017-09-19T14:13:08.577Z,1.33
2017-09-19T14:15:36.843Z,1.30
2017-09-19T14:18:04.302Z,1.50
2017-09-19T14:20:31.789Z,1.83
2017-09-19T14:22:59.241Z,1.33
2017-09-19T14:25:26.701Z,1.50
2017-09-19T14:27:54.219Z,1.33
2017-09-19T14:30:21.672Z,1.40
2017-09-19T14:32:49.230Z,1.10
2017-09-19T14:35:18.207Z,1.37
2017-09-19T14:37:45.783Z,1.60
2017-09-19T14:40:13.249Z,1.20
2017-09-19T14:42:40.713Z,1.63
2017-09-19T14:45:08.933Z,1.67
2017-09-19T14:47:36.417Z,1.20
2017-09-19T14:50:03.880Z,1.73
2017-09-19T14:52:31.343Z,1.40
2017-09-19T14:54:58.818Z,1.47
2017-09-19T14:57:27.036Z,1.80
2017-09-19T14:59:54.509Z,1.80
2017-09-19T15:02:21.969Z,1.43
2017-09-19T15:04:49.434Z,1.50
2017-09-19T15:07:16.907Z,1.30
2017-09-19T15:09:44.395Z,1.70
2017-09-19T15:12:11.845Z,1.57
2017-09-19T15:14:39.296Z,1.83
2017-09-19T15:17:07.531Z,1.63
2017-09-19T15:19:35.034Z,1.77
2017-09-19T15:22:02.512Z,1.93
2017-09-19T15:24:29.969Z,1.90
2017-09-19T15:26:57.450Z,1.50
2017-09-19T15:29:24.902Z,1.67
2017-09-19T15:31:52.385Z,2.30
2017-09-19T15:34:19.841Z,1.90
2017-09-19T15:36:47.308Z,1.90
2017-09-19T15:39:14.774Z,1.53
2017-09-19T15:41:42.997Z,1.80
2017-09-19T15:44:10.459Z,1.90
2017-09-19T15:46:37.910Z,2.20
2017-09-19T15:49:05.378Z,1.60
2017-09-19T15:51:33.610Z,1.33
2017-09-19T15:54:01.094Z,1.40
2017-09-19T15:56:28.562Z,2.23
2017-09-19T15:58:56.049Z,1.57
2017-09-19T16:01:23.519Z,2.57
2017-09-19T16:03:51.754Z,1.80
2017-09-19T16:06:19.233Z,1.57
2017-09-19T16:08:46.693Z,1.73
2017-09-19T16:11:14.159Z,1.30
2017-09-19T16:13:42.385Z,2.10
2017-09-19T16:16:09.849Z,1.80
2017-09-19T16:18:37.330Z,1.87
2017-09-19T16:21:04.831Z,1.50
2017-09-19T16:23:32.298Z,2.07
2017-09-19T16:25:59.782Z,2.07
2017-09-19T16:28:27.217Z,2.03
2017-09-19T16:30:54.673Z,2.00
2017-09-19T16:33:22.138Z,1.97
2017-09-19T16:35:49.625Z,2.00
2017-09-19T16:38:17.102Z,1.83
2017-09-19T16:40:45.364Z,2.50
2017-09-19T16:43:12.828Z,2.30
2017-09-19T16:45:40.290Z,1.90
2017-09-19T16:48:08.515Z,2.03
2017-09-19T16:50:35.994Z,2.37
2017-09-19T16:53:03.564Z,2.53
2017-09-19T16:55:31.126Z,1.93
2017-09-19T16:57:59.365Z,1.60
2017-09-19T17:00:26.842Z,2.20
2017-09-19T17:02:54.413Z,2.40
2017-09-19T17:05:21.910Z,2.53
2017-09-19T17:07:49.438Z,2.47
2017-09-19T17:10:17.666Z,2.20
2017-09-19T17:12:45.158Z,2.67
2017-09-19T17:15:12.725Z,2.27
2017-09-19T17:17:40.282Z,2.47
2017-09-19T17:20:09.261Z,2.53
2017-09-19T17:22:36.839Z,2.27
2017-09-19T17:25:05.118Z,2.33
2017-09-19T17:27:33.366Z,2.53
2017-09-19T17:30:00.849Z,2.33
2017-09-19T17:32:28.348Z,3.10
2017-09-19T17:34:55.809Z,3.27
2017-09-19T17:37:23.326Z,2.67
2017-09-19T17:39:51.562Z,2.97
2017-09-19T17:42:19.040Z,2.80
2017-09-19T17:44:47.279Z,2.63
2017-09-19T17:47:14.777Z,2.80
2017-09-19T17:49:43.750Z,2.83
2017-09-19T17:52:11.227Z,3.50
2017-09-19T17:54:39.467Z,2.60
2017-09-19T17:57:06.941Z,2.93
2017-09-19T17:59:34.417Z,3.40
2017-09-19T18:02:02.126Z,2.63
2017-09-19T18:04:29.630Z,2.60
2017-09-19T18:06:57.107Z,2.50
2017-09-19T18:09:25.329Z,2.77
2017-09-19T18:11:52.871Z,2.67
2017-09-19T18:14:20.374Z,3.20
2017-09-19T18:16:47.962Z,2.67
2017-09-19T18:19:16.193Z,3.07
2017-09-19T18:21:43.669Z,2.80
2017-09-19T18:24:11.918Z,3.00
2017-09-19T18:26:39.406Z,2.97
2017-09-19T18:29:06.886Z,3.20
2017-09-19T18:31:35.109Z,3.30
2017-09-19T18:34:02.643Z,3.30
2017-09-19T18:36:30.107Z,3.70
2017-09-19T18:38:57.618Z,3.10
2017-09-19T18:41:25.857Z,3.60
2017-09-19T18:43:53.321Z,3.37
2017-09-19T18:46:20.798Z,3.53
2017-09-19T18:48:48.257Z,2.93
2017-09-19T18:51:15.773Z,3.20
2017-09-19T18:53:43.239Z,3.87
2017-09-19T18:56:10.700Z,4.93
2017-09-19T18:58:38.264Z,5.87
2017-09-19T19:03:38.192Z,5.67
2017-09-19T19:06:05.661Z,5.63
2017-09-19T19:08:33.116Z,5.10
2017-09-19T19:11:00.632Z,4.77
2017-09-19T19:13:28.134Z,5.27
2017-09-19T19:15:55.603Z,4.87
2017-09-19T19:18:23.847Z,5.63
2017-09-19T19:20:51.313Z,5.10
2017-09-19T19:23:18.787Z,5.20
2017-09-19T19:25:46.251Z,5.27
2017-09-19T19:28:14.480Z,4.87
2017-09-19T19:30:41.954Z,4.80
2017-09-19T19:33:09.422Z,4.90
2017-09-19T19:35:37.655Z,4.57
2017-09-19T19:38:05.181Z,5.30
2017-09-19T19:40:33.432Z,5.30
2017-09-19T19:43:00.907Z,4.73
2017-09-19T19:45:29.169Z,4.83
2017-09-19T19:47:56.887Z,5.00
2017-09-19T19:50:25.014Z,5.00
2017-09-19T19:52:52.552Z,5.27
2017-09-19T19:55:20.009Z,4.77
2017-09-19T19:57:47.525Z,5.20
2017-09-19T20:00:15.001Z,5.10
2017-09-19T20:02:42.474Z,4.97
2017-09-19T20:05:09.945Z,4.70
2017-09-19T20:07:37.425Z,5.80
2017-09-19T20:10:05.669Z,5.70
2017-09-19T20:12:33.153Z,5.40
2017-09-19T20:15:01.427Z,5.23
2017-09-19T20:17:29.691Z,5.50
2017-09-19T20:19:57.165Z,6.17
2017-09-19T20:22:25.409Z,5.93
2017-09-19T20:24:52.873Z,5.23
2017-09-19T20:27:20.340Z,5.50
2017-09-19T20:29:48.573Z,5.80
2017-09-19T20:32:16.047Z,5.63
2017-09-19T20:34:43.510Z,5.50
2017-09-19T20:37:11.763Z,5.57
2017-09-19T20:39:39.226Z,6.20
2017-09-19T20:42:06.806Z,5.60
2017-09-19T20:44:35.786Z,6.63
2017-09-19T20:47:03.250Z,6.53
2017-09-19T20:49:30.818Z,6.47
2017-09-19T20:51:58.273Z,6.03
2017-09-19T20:54:25.822Z,6.10
2017-09-19T20:56:53.397Z,5.60
2017-09-19T20:59:21.627Z,5.70
2017-09-19T21:01:49.182Z,7.13
2017-09-19T21:04:22.253Z,6.20
2017-09-19T21:06:55.348Z,6.63
2017-09-19T21:09:28.545Z,5.97
2017-09-19T21:12:01.762Z,6.43
2017-09-19T21:14:35.032Z,7.00
2017-09-19T21:17:08.195Z,6.90
2017-09-19T21:19:35.168Z,7.53
2017-09-19T21:22:02.648Z,7.63
2017-09-19T21:24:30.219Z,7.13
2017-09-19T21:26:57.743Z,7.53
2017-09-19T21:29:25.209Z,7.40
2017-09-19T21:31:52.678Z,8.33
2017-09-19T21:34:20.262Z,7.93
2017-09-19T21:36:47.721Z,8.90
2017-09-19T21:39:15.257Z,7.93
2017-09-19T21:41:42.718Z,8.13
2017-09-19T21:44:10.283Z,8.10
2017-09-19T21:46:37.837Z,8.37
2017-09-19T21:49:05.393Z,8.60
2017-09-19T21:51:32.849Z,9.23
2017-09-19T21:54:00.418Z,8.20
2017-09-19T21:56:27.886Z,8.70
2017-09-19T21:58:55.387Z,9.43
2017-09-19T22:01:22.860Z,8.63
2017-09-19T22:03:50.332Z,9.83
2017-09-19T22:06:17.913Z,8.60
2017-09-19T22:08:46.185Z,8.60
2017-09-19T22:11:13.736Z,9.43
2017-09-19T22:13:41.192Z,9.60
2017-09-19T22:16:08.679Z,9.37
2017-09-19T22:18:36.922Z,8.50
2017-09-19T22:21:04.389Z,8.83
2017-09-19T22:23:31.893Z,9.30
2017-09-19T22:25:59.405Z,9.43
2017-09-19T22:28:27.002Z,9.13
2017-09-19T22:30:54.479Z,9.97
2017-09-19T22:33:21.945Z,9.60
2017-09-19T22:35:49.425Z,9.20
2017-09-19T22:38:16.981Z,8.67
2017-09-19T22:40:44.460Z,9.63
2017-09-19T22:43:12.720Z,9.20
2017-09-19T22:45:40.194Z,10.00
2017-09-19T22:48:08.466Z,9.60
2017-09-19T22:50:36.680Z,9.10
2017-09-19T22:53:04.193Z,10.00
2017-09-19T22:55:32.431Z,9.50
2017-09-19T22:57:59.904Z,10.20
2017-09-19T23:00:27.482Z,9.50
2017-09-19T23:02:55.089Z,9.50
2017-09-19T23:05:22.573Z,10.00
2017-09-19T23:07:50.137Z,9.37
2017-09-19T23:10:19.104Z,9.60
2017-09-19T23:12:46.586Z,9.52
2017-09-19T23:15:14.147Z,9.57
2017-09-19T23:17:41.722Z,8.90
2017-09-19T23:20:09.227Z,9.07
2017-09-19T23:22:36.702Z,9.63
2017-09-19T23:25:04.198Z,9.83
2017-09-19T23:27:31.669Z,9.67
2017-09-19T23:29:59.934Z,9.93
2017-09-19T23:32:28.179Z,9.70
2017-09-19T23:34:55.766Z,10.23
2017-09-19T23:37:23.250Z,9.83
2017-09-19T23:39:50.738Z,10.70
2017-09-19T23:42:18.231Z,10.00
2017-09-19T23:44:45.791Z,10.40
2017-09-19T23:47:14.023Z,10.33
2017-09-19T23:49:41.612Z,10.15
2017-09-19T23:52:09.176Z,10.30
2017-09-19T23:54:36.674Z,10.10
2017-09-19T23:57:04.191Z,9.48
2017-09-19T23:59:31.755Z,10.73
